sensor_id;sensor_type;location;lat;lon;timestamp;P1;durP1;ratioP1;P2;durP2;ratioP2
18796;SDS011;9526;52.612;13.300;2022-11-02T00:01:36;48.25;;;28.30;;
18796;SDS011;9526;52.612;13.300;2022-11-02T00:04:03;40.70;;;24.45;;
18796;SDS011;9526;52.612;13.300;2022-11-02T00:06:26;60.60;;;29.77;;
18796;SDS011;9526;52.612;13.300;2022-11-02T00:08:50;43.97;;;27.27;;
18796;SDS011;9526;52.612;13.300;2022-11-02T00:11:13;48.38;;;26.98;;
18796;SDS011;9526;52.612;13.300;2022-11-02T00:13:37;48.78;;;28.83;;
18796;SDS011;9526;52.612;13.300;2022-11-02T00:16:01;45.47;;;27.77;;
18796;SDS011;9526;52.612;13.300;2022-11-02T00:18:27;49.05;;;29.38;;
18796;SDS011;9526;52.612;13.300;2022-11-02T00:20:51;52.67;;;29.45;;
18796;SDS011;9526;52.612;13.300;2022-11-02T00:23:15;36.90;;;24.15;;
18796;SDS011;9526;52.612;13.300;2022-11-02T00:25:38;51.75;;;28.73;;
18796;SDS011;9526;52.612;13.300;2022-11-02T00:28:09;40.03;;;25.08;;
18796;SDS011;9526;52.612;13.300;2022-11-02T00:30:32;52.60;;;29.02;;
18796;SDS011;9526;52.612;13.300;2022-11-02T00:32:56;44.22;;;26.00;;
18796;SDS011;9526;52.612;13.300;2022-11-02T00:35:21;46.08;;;27.27;;
18796;SDS011;9526;52.612;13.300;2022-11-02T00:37:45;50.40;;;28.33;;
18796;SDS011;9526;52.612;13.300;2022-11-02T00:40:10;49.22;;;27.35;;
18796;SDS011;9526;52.612;13.300;2022-11-02T00:42:34;58.78;;;29.02;;
18796;SDS011;9526;52.612;13.300;2022-11-02T00:44:58;41.90;;;25.73;;
18796;SDS011;9526;52.612;13.300;2022-11-02T00:47:22;41.25;;;24.48;;
18796;SDS011;9526;52.612;13.300;2022-11-02T00:49:47;45.47;;;24.92;;
18796;SDS011;9526;52.612;13.300;2022-11-02T00:52:12;44.50;;;25.15;;
18796;SDS011;9526;52.612;13.300;2022-11-02T00:54:39;42.35;;;23.65;;
18796;SDS011;9526;52.612;13.300;2022-11-02T00:57:03;38.00;;;23.42;;
18796;SDS011;9526;52.612;13.300;2022-11-02T00:59:27;50.72;;;25.15;;
18796;SDS011;9526;52.612;13.300;2022-11-02T01:01:50;45.45;;;24.05;;
18796;SDS011;9526;52.612;13.300;2022-11-02T01:04:14;57.95;;;25.42;;
18796;SDS011;9526;52.612;13.300;2022-11-02T01:06:39;50.22;;;24.15;;
18796;SDS011;9526;52.612;13.300;2022-11-02T01:09:04;38.08;;;22.80;;
18796;SDS011;9526;52.612;13.300;2022-11-02T01:11:28;37.42;;;21.77;;
18796;SDS011;9526;52.612;13.300;2022-11-02T01:13:51;43.53;;;22.95;;
18796;SDS011;9526;52.612;13.300;2022-11-02T01:16:15;47.80;;;23.55;;
18796;SDS011;9526;52.612;13.300;2022-11-02T01:18:39;40.00;;;21.00;;
18796;SDS011;9526;52.612;13.300;2022-11-02T01:21:04;38.25;;;21.20;;
18796;SDS011;9526;52.612;13.300;2022-11-02T01:23:29;41.28;;;21.75;;
18796;SDS011;9526;52.612;13.300;2022-11-02T01:25:55;44.55;;;22.65;;
18796;SDS011;9526;52.612;13.300;2022-11-02T01:28:19;41.75;;;22.38;;
18796;SDS011;9526;52.612;13.300;2022-11-02T01:30:43;44.80;;;21.67;;
18796;SDS011;9526;52.612;13.300;2022-11-02T01:33:09;36.20;;;20.50;;
18796;SDS011;9526;52.612;13.300;2022-11-02T01:35:35;37.70;;;20.63;;
18796;SDS011;9526;52.612;13.300;2022-11-02T01:37:58;43.78;;;21.10;;
18796;SDS011;9526;52.612;13.300;2022-11-02T01:40:23;37.72;;;20.85;;
18796;SDS011;9526;52.612;13.300;2022-11-02T01:42:48;38.83;;;20.93;;
18796;SDS011;9526;52.612;13.300;2022-11-02T01:45:12;44.80;;;22.10;;
18796;SDS011;9526;52.612;13.300;2022-11-02T01:47:36;37.60;;;20.35;;
18796;SDS011;9526;52.612;13.300;2022-11-02T01:50:03;36.90;;;20.50;;
18796;SDS011;9526;52.612;13.300;2022-11-02T01:52:33;31.40;;;18.77;;
18796;SDS011;9526;52.612;13.300;2022-11-02T01:55:00;42.33;;;21.98;;
18796;SDS011;9526;52.612;13.300;2022-11-02T01:57:29;42.65;;;22.10;;
18796;SDS011;9526;52.612;13.300;2022-11-02T01:59:57;33.33;;;20.15;;
18796;SDS011;9526;52.612;13.300;2022-11-02T02:02:37;36.15;;;19.80;;
18796;SDS011;9526;52.612;13.300;2022-11-02T02:05:08;45.28;;;20.80;;
18796;SDS011;9526;52.612;13.300;2022-11-02T02:07:34;42.53;;;20.70;;
18796;SDS011;9526;52.612;13.300;2022-11-02T02:10:00;39.47;;;22.27;;
18796;SDS011;9526;52.612;13.300;2022-11-02T02:12:27;34.90;;;19.20;;
18796;SDS011;9526;52.612;13.300;2022-11-02T02:14:52;45.53;;;23.52;;
18796;SDS011;9526;52.612;13.300;2022-11-02T02:17:21;40.90;;;22.23;;
18796;SDS011;9526;52.612;13.300;2022-11-02T02:19:55;36.38;;;20.33;;
18796;SDS011;9526;52.612;13.300;2022-11-02T02:22:33;39.20;;;21.42;;
18796;SDS011;9526;52.612;13.300;2022-11-02T02:25:46;39.80;;;22.98;;
18796;SDS011;9526;52.612;13.300;2022-11-02T02:28:31;39.87;;;22.37;;
18796;SDS011;9526;52.612;13.300;2022-11-02T02:31:06;34.58;;;21.02;;
18796;SDS011;9526;52.612;13.300;2022-11-02T02:33:38;41.72;;;22.25;;
18796;SDS011;9526;52.612;13.300;2022-11-02T02:36:09;45.22;;;21.05;;
18796;SDS011;9526;52.612;13.300;2022-11-02T02:38:42;31.60;;;19.07;;
18796;SDS011;9526;52.612;13.300;2022-11-02T02:41:11;35.72;;;19.92;;
18796;SDS011;9526;52.612;13.300;2022-11-02T02:43:42;42.05;;;20.88;;
18796;SDS011;9526;52.612;13.300;2022-11-02T02:46:12;38.30;;;19.40;;
18796;SDS011;9526;52.612;13.300;2022-11-02T02:48:42;41.90;;;20.23;;
18796;SDS011;9526;52.612;13.300;2022-11-02T02:51:08;44.47;;;20.63;;
18796;SDS011;9526;52.612;13.300;2022-11-02T02:53:37;39.17;;;20.17;;
18796;SDS011;9526;52.612;13.300;2022-11-02T02:56:09;34.17;;;20.30;;
18796;SDS011;9526;52.612;13.300;2022-11-02T02:58:35;30.33;;;17.87;;
18796;SDS011;9526;52.612;13.300;2022-11-02T03:01:05;37.20;;;18.60;;
18796;SDS011;9526;52.612;13.300;2022-11-02T03:03:34;27.63;;;17.10;;
18796;SDS011;9526;52.612;13.300;2022-11-02T03:06:03;36.27;;;18.77;;
18796;SDS011;9526;52.612;13.300;2022-11-02T03:08:42;34.30;;;17.87;;
18796;SDS011;9526;52.612;13.300;2022-11-02T03:11:11;32.15;;;17.70;;
18796;SDS011;9526;52.612;13.300;2022-11-02T03:13:41;29.67;;;16.13;;
18796;SDS011;9526;52.612;13.300;2022-11-02T03:16:29;30.57;;;16.50;;
18796;SDS011;9526;52.612;13.300;2022-11-02T03:19:13;31.60;;;17.53;;
18796;SDS011;9526;52.612;13.300;2022-11-02T03:21:44;28.60;;;15.23;;
18796;SDS011;9526;52.612;13.300;2022-11-02T03:24:18;25.73;;;15.20;;
18796;SDS011;9526;52.612;13.300;2022-11-02T03:26:49;26.63;;;15.35;;
18796;SDS011;9526;52.612;13.300;2022-11-02T03:29:30;30.48;;;15.43;;
18796;SDS011;9526;52.612;13.300;2022-11-02T03:32:06;31.08;;;16.98;;
18796;SDS011;9526;52.612;13.300;2022-11-02T03:34:35;27.63;;;16.00;;
18796;SDS011;9526;52.612;13.300;2022-11-02T03:37:05;27.07;;;14.83;;
18796;SDS011;9526;52.612;13.300;2022-11-02T03:39:39;26.02;;;14.32;;
18796;SDS011;9526;52.612;13.300;2022-11-02T03:42:08;27.70;;;15.37;;
18796;SDS011;9526;52.612;13.300;2022-11-02T03:44:36;27.27;;;15.17;;
18796;SDS011;9526;52.612;13.300;2022-11-02T03:47:04;33.87;;;14.70;;
18796;SDS011;9526;52.612;13.300;2022-11-02T03:49:33;25.33;;;14.60;;
18796;SDS011;9526;52.612;13.300;2022-11-02T03:52:00;26.73;;;15.17;;
18796;SDS011;9526;52.612;13.300;2022-11-02T03:54:28;27.80;;;14.70;;
18796;SDS011;9526;52.612;13.300;2022-11-02T03:57:05;29.37;;;15.13;;
18796;SDS011;9526;52.612;13.300;2022-11-02T03:59:33;25.17;;;14.40;;
18796;SDS011;9526;52.612;13.300;2022-11-02T04:01:57;27.47;;;14.80;;
18796;SDS011;9526;52.612;13.300;2022-11-02T04:04:25;27.10;;;13.82;;
18796;SDS011;9526;52.612;13.300;2022-11-02T04:06:49;28.40;;;14.73;;
18796;SDS011;9526;52.612;13.300;2022-11-02T04:09:15;24.92;;;14.02;;
18796;SDS011;9526;52.612;13.300;2022-11-02T04:11:39;30.58;;;15.10;;
18796;SDS011;9526;52.612;13.300;2022-11-02T04:14:22;23.15;;;13.50;;
18796;SDS011;9526;52.612;13.300;2022-11-02T04:17:09;27.57;;;14.10;;
18796;SDS011;9526;52.612;13.300;2022-11-02T04:19:55;28.93;;;13.13;;
18796;SDS011;9526;52.612;13.300;2022-11-02T04:22:20;25.13;;;13.25;;
18796;SDS011;9526;52.612;13.300;2022-11-02T04:25:05;31.50;;;14.05;;
18796;SDS011;9526;52.612;13.300;2022-11-02T04:28:05;26.38;;;13.93;;
18796;SDS011;9526;52.612;13.300;2022-11-02T04:30:39;19.33;;;11.47;;
18796;SDS011;9526;52.612;13.300;2022-11-02T04:33:03;23.60;;;11.40;;
18796;SDS011;9526;52.612;13.300;2022-11-02T04:35:50;23.77;;;12.13;;
18796;SDS011;9526;52.612;13.300;2022-11-02T04:38:15;24.48;;;12.98;;
18796;SDS011;9526;52.612;13.300;2022-11-02T04:40:58;28.13;;;12.85;;
18796;SDS011;9526;52.612;13.300;2022-11-02T04:43:37;23.37;;;11.50;;
18796;SDS011;9526;52.612;13.300;2022-11-02T04:46:01;29.87;;;12.80;;
18796;SDS011;9526;52.612;13.300;2022-11-02T04:48:26;21.53;;;11.90;;
18796;SDS011;9526;52.612;13.300;2022-11-02T04:50:51;22.50;;;10.80;;
18796;SDS011;9526;52.612;13.300;2022-11-02T04:53:15;23.58;;;11.57;;
18796;SDS011;9526;52.612;13.300;2022-11-02T04:55:39;20.33;;;10.40;;
18796;SDS011;9526;52.612;13.300;2022-11-02T04:58:03;18.23;;;10.13;;
18796;SDS011;9526;52.612;13.300;2022-11-02T05:00:27;23.65;;;9.70;;
18796;SDS011;9526;52.612;13.300;2022-11-02T05:02:51;21.83;;;9.33;;
18796;SDS011;9526;52.612;13.300;2022-11-02T05:05:17;19.67;;;9.70;;
18796;SDS011;9526;52.612;13.300;2022-11-02T05:07:44;17.17;;;7.80;;
18796;SDS011;9526;52.612;13.300;2022-11-02T05:10:08;19.67;;;8.67;;
18796;SDS011;9526;52.612;13.300;2022-11-02T05:12:33;19.27;;;8.47;;
18796;SDS011;9526;52.612;13.300;2022-11-02T05:14:56;19.27;;;8.17;;
18796;SDS011;9526;52.612;13.300;2022-11-02T05:17:20;28.33;;;8.30;;
18796;SDS011;9526;52.612;13.300;2022-11-02T05:19:44;20.97;;;7.73;;
18796;SDS011;9526;52.612;13.300;2022-11-02T05:22:08;24.50;;;6.60;;
18796;SDS011;9526;52.612;13.300;2022-11-02T05:24:33;25.23;;;7.00;;
18796;SDS011;9526;52.612;13.300;2022-11-02T05:26:58;20.80;;;5.80;;
18796;SDS011;9526;52.612;13.300;2022-11-02T05:29:24;24.07;;;6.80;;
18796;SDS011;9526;52.612;13.300;2022-11-02T05:31:48;22.40;;;5.93;;
18796;SDS011;9526;52.612;13.300;2022-11-02T05:34:11;20.75;;;5.32;;
18796;SDS011;9526;52.612;13.300;2022-11-02T05:36:36;26.23;;;6.20;;
18796;SDS011;9526;52.612;13.300;2022-11-02T05:38:59;19.90;;;6.20;;
18796;SDS011;9526;52.612;13.300;2022-11-02T05:41:26;20.07;;;5.77;;
18796;SDS011;9526;52.612;13.300;2022-11-02T05:43:52;23.97;;;6.07;;
18796;SDS011;9526;52.612;13.300;2022-11-02T05:46:17;23.80;;;5.90;;
18796;SDS011;9526;52.612;13.300;2022-11-02T05:48:41;23.93;;;6.23;;
18796;SDS011;9526;52.612;13.300;2022-11-02T05:51:04;19.87;;;6.60;;
18796;SDS011;9526;52.612;13.300;2022-11-02T05:53:29;23.43;;;6.33;;
18796;SDS011;9526;52.612;13.300;2022-11-02T05:55:57;19.35;;;5.90;;
18796;SDS011;9526;52.612;13.300;2022-11-02T05:58:23;22.37;;;6.17;;
18796;SDS011;9526;52.612;13.300;2022-11-02T06:00:47;17.63;;;5.60;;
18796;SDS011;9526;52.612;13.300;2022-11-02T06:03:10;20.40;;;5.27;;
18796;SDS011;9526;52.612;13.300;2022-11-02T06:05:34;19.33;;;6.03;;
18796;SDS011;9526;52.612;13.300;2022-11-02T06:07:58;16.27;;;5.10;;
18796;SDS011;9526;52.612;13.300;2022-11-02T06:10:22;14.38;;;5.63;;
18796;SDS011;9526;52.612;13.300;2022-11-02T06:12:46;18.90;;;5.10;;
18796;SDS011;9526;52.612;13.300;2022-11-02T06:15:17;18.67;;;5.50;;
18796;SDS011;9526;52.612;13.300;2022-11-02T06:17:41;17.02;;;5.70;;
18796;SDS011;9526;52.612;13.300;2022-11-02T06:20:05;14.00;;;5.20;;
18796;SDS011;9526;52.612;13.300;2022-11-02T06:22:30;19.30;;;5.30;;
18796;SDS011;9526;52.612;13.300;2022-11-02T06:25:01;17.70;;;4.95;;
18796;SDS011;9526;52.612;13.300;2022-11-02T06:27:25;21.43;;;5.03;;
18796;SDS011;9526;52.612;13.300;2022-11-02T06:29:49;15.45;;;5.30;;
18796;SDS011;9526;52.612;13.300;2022-11-02T06:32:13;16.83;;;4.95;;
18796;SDS011;9526;52.612;13.300;2022-11-02T06:34:37;22.40;;;5.88;;
18796;SDS011;9526;52.612;13.300;2022-11-02T06:37:01;12.52;;;4.95;;
18796;SDS011;9526;52.612;13.300;2022-11-02T06:39:24;16.40;;;4.97;;
18796;SDS011;9526;52.612;13.300;2022-11-02T06:41:48;14.73;;;5.07;;
18796;SDS011;9526;52.612;13.300;2022-11-02T06:44:12;22.10;;;5.70;;
18796;SDS011;9526;52.612;13.300;2022-11-02T06:46:35;17.33;;;5.00;;
18796;SDS011;9526;52.612;13.300;2022-11-02T06:49:00;20.80;;;5.95;;
18796;SDS011;9526;52.612;13.300;2022-11-02T06:51:24;16.35;;;5.15;;
18796;SDS011;9526;52.612;13.300;2022-11-02T06:53:47;16.83;;;5.22;;
18796;SDS011;9526;52.612;13.300;2022-11-02T06:56:11;20.83;;;5.45;;
18796;SDS011;9526;52.612;13.300;2022-11-02T06:58:35;24.77;;;6.00;;
18796;SDS011;9526;52.612;13.300;2022-11-02T07:01:00;21.25;;;5.38;;
18796;SDS011;9526;52.612;13.300;2022-11-02T07:03:25;18.40;;;5.28;;
18796;SDS011;9526;52.612;13.300;2022-11-02T07:05:51;13.88;;;5.13;;
18796;SDS011;9526;52.612;13.300;2022-11-02T07:08:15;23.75;;;5.25;;
18796;SDS011;9526;52.612;13.300;2022-11-02T07:10:39;22.48;;;5.53;;
18796;SDS011;9526;52.612;13.300;2022-11-02T07:13:02;20.42;;;5.35;;
18796;SDS011;9526;52.612;13.300;2022-11-02T07:15:27;26.85;;;5.97;;
18796;SDS011;9526;52.612;13.300;2022-11-02T07:17:51;18.75;;;5.10;;
18796;SDS011;9526;52.612;13.300;2022-11-02T07:20:15;15.05;;;4.80;;
18796;SDS011;9526;52.612;13.300;2022-11-02T07:22:41;22.08;;;5.05;;
18796;SDS011;9526;52.612;13.300;2022-11-02T07:25:05;20.48;;;5.00;;
18796;SDS011;9526;52.612;13.300;2022-11-02T07:27:29;18.08;;;4.60;;
18796;SDS011;9526;52.612;13.300;2022-11-02T07:29:53;18.67;;;4.90;;
18796;SDS011;9526;52.612;13.300;2022-11-02T07:32:17;21.90;;;5.07;;
18796;SDS011;9526;52.612;13.300;2022-11-02T07:34:40;20.92;;;4.68;;
18796;SDS011;9526;52.612;13.300;2022-11-02T07:37:04;19.40;;;4.85;;
18796;SDS011;9526;52.612;13.300;2022-11-02T07:39:29;16.17;;;4.20;;
18796;SDS011;9526;52.612;13.300;2022-11-02T07:41:52;15.68;;;3.95;;
18796;SDS011;9526;52.612;13.300;2022-11-02T07:44:18;16.05;;;3.83;;
18796;SDS011;9526;52.612;13.300;2022-11-02T07:46:47;18.23;;;4.38;;
18796;SDS011;9526;52.612;13.300;2022-11-02T07:49:11;18.30;;;4.40;;
18796;SDS011;9526;52.612;13.300;2022-11-02T07:51:41;17.33;;;4.03;;
18796;SDS011;9526;52.612;13.300;2022-11-02T07:54:05;14.30;;;4.25;;
18796;SDS011;9526;52.612;13.300;2022-11-02T07:56:30;17.42;;;3.55;;
18796;SDS011;9526;52.612;13.300;2022-11-02T07:58:53;17.23;;;3.55;;
18796;SDS011;9526;52.612;13.300;2022-11-02T08:01:17;14.38;;;3.40;;
18796;SDS011;9526;52.612;13.300;2022-11-02T08:03:41;12.40;;;3.60;;
18796;SDS011;9526;52.612;13.300;2022-11-02T08:06:04;17.67;;;3.20;;
18796;SDS011;9526;52.612;13.300;2022-11-02T08:08:28;12.77;;;3.38;;
18796;SDS011;9526;52.612;13.300;2022-11-02T08:10:52;13.88;;;3.13;;
18796;SDS011;9526;52.612;13.300;2022-11-02T08:13:18;20.73;;;3.30;;
18796;SDS011;9526;52.612;13.300;2022-11-02T08:15:43;18.13;;;3.53;;
18796;SDS011;9526;52.612;13.300;2022-11-02T08:18:11;13.63;;;3.55;;
18796;SDS011;9526;52.612;13.300;2022-11-02T08:20:36;14.43;;;2.70;;
18796;SDS011;9526;52.612;13.300;2022-11-02T08:23:00;16.50;;;2.80;;
18796;SDS011;9526;52.612;13.300;2022-11-02T08:25:24;16.33;;;2.83;;
18796;SDS011;9526;52.612;13.300;2022-11-02T08:27:48;12.13;;;2.78;;
18796;SDS011;9526;52.612;13.300;2022-11-02T08:30:13;9.30;;;2.33;;
18796;SDS011;9526;52.612;13.300;2022-11-02T08:32:37;10.07;;;3.03;;
18796;SDS011;9526;52.612;13.300;2022-11-02T08:35:01;12.18;;;2.85;;
18796;SDS011;9526;52.612;13.300;2022-11-02T08:37:25;20.02;;;3.40;;
18796;SDS011;9526;52.612;13.300;2022-11-02T08:39:49;10.68;;;2.55;;
18796;SDS011;9526;52.612;13.300;2022-11-02T08:42:12;12.40;;;3.45;;
18796;SDS011;9526;52.612;13.300;2022-11-02T08:44:36;14.18;;;2.78;;
18796;SDS011;9526;52.612;13.300;2022-11-02T08:47:04;13.93;;;4.10;;
18796;SDS011;9526;52.612;13.300;2022-11-02T08:49:30;13.88;;;3.28;;
18796;SDS011;9526;52.612;13.300;2022-11-02T08:51:53;13.25;;;3.83;;
18796;SDS011;9526;52.612;13.300;2022-11-02T08:54:17;12.18;;;2.63;;
18796;SDS011;9526;52.612;13.300;2022-11-02T08:56:40;10.23;;;2.78;;
18796;SDS011;9526;52.612;13.300;2022-11-02T08:59:04;9.45;;;2.30;;
18796;SDS011;9526;52.612;13.300;2022-11-02T09:01:28;10.23;;;2.60;;
18796;SDS011;9526;52.612;13.300;2022-11-02T09:03:53;17.42;;;2.90;;
18796;SDS011;9526;52.612;13.300;2022-11-02T09:06:17;14.15;;;2.75;;
18796;SDS011;9526;52.612;13.300;2022-11-02T09:08:40;10.70;;;3.05;;
18796;SDS011;9526;52.612;13.300;2022-11-02T09:11:04;9.50;;;2.50;;
18796;SDS011;9526;52.612;13.300;2022-11-02T09:13:28;9.65;;;2.13;;
18796;SDS011;9526;52.612;13.300;2022-11-02T09:15:53;9.95;;;2.38;;
18796;SDS011;9526;52.612;13.300;2022-11-02T09:18:18;10.15;;;2.28;;
18796;SDS011;9526;52.612;13.300;2022-11-02T09:20:43;6.05;;;1.98;;
18796;SDS011;9526;52.612;13.300;2022-11-02T09:23:09;10.00;;;2.58;;
18796;SDS011;9526;52.612;13.300;2022-11-02T09:25:32;5.43;;;2.00;;
18796;SDS011;9526;52.612;13.300;2022-11-02T09:27:56;9.10;;;2.30;;
18796;SDS011;9526;52.612;13.300;2022-11-02T09:30:20;14.82;;;2.58;;
18796;SDS011;9526;52.612;13.300;2022-11-02T09:32:52;11.20;;;2.50;;
18796;SDS011;9526;52.612;13.300;2022-11-02T09:35:16;10.95;;;2.30;;
18796;SDS011;9526;52.612;13.300;2022-11-02T09:37:42;8.48;;;2.00;;
18796;SDS011;9526;52.612;13.300;2022-11-02T09:40:11;10.90;;;2.25;;
18796;SDS011;9526;52.612;13.300;2022-11-02T09:42:38;7.55;;;2.05;;
18796;SDS011;9526;52.612;13.300;2022-11-02T09:45:15;7.97;;;1.95;;
18796;SDS011;9526;52.612;13.300;2022-11-02T09:47:41;6.53;;;2.08;;
18796;SDS011;9526;52.612;13.300;2022-11-02T09:50:35;8.38;;;1.95;;
18796;SDS011;9526;52.612;13.300;2022-11-02T09:53:12;6.78;;;2.00;;
18796;SDS011;9526;52.612;13.300;2022-11-02T09:55:41;9.98;;;2.55;;
18796;SDS011;9526;52.612;13.300;2022-11-02T09:58:12;9.48;;;1.83;;
18796;SDS011;9526;52.612;13.300;2022-11-02T10:00:44;12.48;;;2.60;;
18796;SDS011;9526;52.612;13.300;2022-11-02T10:03:15;7.78;;;1.88;;
18796;SDS011;9526;52.612;13.300;2022-11-02T10:05:50;10.63;;;1.80;;
18796;SDS011;9526;52.612;13.300;2022-11-02T10:08:32;9.55;;;1.65;;
18796;SDS011;9526;52.612;13.300;2022-11-02T10:11:05;10.60;;;2.05;;
18796;SDS011;9526;52.612;13.300;2022-11-02T10:13:45;9.82;;;1.80;;
18796;SDS011;9526;52.612;13.300;2022-11-02T10:16:18;7.75;;;1.65;;
18796;SDS011;9526;52.612;13.300;2022-11-02T10:18:45;7.43;;;2.08;;
18796;SDS011;9526;52.612;13.300;2022-11-02T10:21:11;5.63;;;1.80;;
18796;SDS011;9526;52.612;13.300;2022-11-02T10:23:40;7.97;;;1.85;;
18796;SDS011;9526;52.612;13.300;2022-11-02T10:26:11;9.07;;;2.10;;
18796;SDS011;9526;52.612;13.300;2022-11-02T10:28:44;6.82;;;1.98;;
18796;SDS011;9526;52.612;13.300;2022-11-02T10:31:14;10.77;;;2.30;;
18796;SDS011;9526;52.612;13.300;2022-11-02T10:33:45;8.90;;;1.88;;
18796;SDS011;9526;52.612;13.300;2022-11-02T10:36:16;8.95;;;2.00;;
18796;SDS011;9526;52.612;13.300;2022-11-02T10:38:56;8.55;;;1.95;;
18796;SDS011;9526;52.612;13.300;2022-11-02T10:41:38;10.27;;;2.10;;
18796;SDS011;9526;52.612;13.300;2022-11-02T10:44:23;9.65;;;2.15;;
18796;SDS011;9526;52.612;13.300;2022-11-02T10:47:02;7.00;;;1.70;;
18796;SDS011;9526;52.612;13.300;2022-11-02T10:52:33;9.25;;;2.10;;
18796;SDS011;9526;52.612;13.300;2022-11-02T10:55:00;10.57;;;2.00;;
18796;SDS011;9526;52.612;13.300;2022-11-02T10:57:24;11.55;;;2.10;;
18796;SDS011;9526;52.612;13.300;2022-11-02T11:03:00;8.60;;;1.88;;
18796;SDS011;9526;52.612;13.300;2022-11-02T11:05:36;9.02;;;2.08;;
18796;SDS011;9526;52.612;13.300;2022-11-02T11:08:24;13.10;;;1.98;;
18796;SDS011;9526;52.612;13.300;2022-11-02T11:13:54;11.88;;;2.28;;
18796;SDS011;9526;52.612;13.300;2022-11-02T11:16:44;6.97;;;2.20;;
18796;SDS011;9526;52.612;13.300;2022-11-02T11:19:17;11.15;;;1.75;;
18796;SDS011;9526;52.612;13.300;2022-11-02T11:22:00;10.27;;;1.90;;
18796;SDS011;9526;52.612;13.300;2022-11-02T11:24:25;16.42;;;2.70;;
18796;SDS011;9526;52.612;13.300;2022-11-02T11:27:02;8.75;;;2.22;;
18796;SDS011;9526;52.612;13.300;2022-11-02T11:29:40;7.70;;;1.95;;
18796;SDS011;9526;52.612;13.300;2022-11-02T11:32:12;8.10;;;2.20;;
18796;SDS011;9526;52.612;13.300;2022-11-02T11:34:38;11.68;;;2.40;;
18796;SDS011;9526;52.612;13.300;2022-11-02T11:37:03;7.10;;;2.00;;
18796;SDS011;9526;52.612;13.300;2022-11-02T11:39:30;12.02;;;2.30;;
18796;SDS011;9526;52.612;13.300;2022-11-02T11:41:54;12.45;;;2.45;;
18796;SDS011;9526;52.612;13.300;2022-11-02T11:44:21;9.70;;;2.08;;
18796;SDS011;9526;52.612;13.300;2022-11-02T11:46:45;9.57;;;2.08;;
18796;SDS011;9526;52.612;13.300;2022-11-02T11:49:17;7.88;;;2.08;;
18796;SDS011;9526;52.612;13.300;2022-11-02T11:52:03;10.25;;;2.03;;
18796;SDS011;9526;52.612;13.300;2022-11-02T11:54:27;12.32;;;2.50;;
18796;SDS011;9526;52.612;13.300;2022-11-02T11:56:52;10.77;;;2.10;;
18796;SDS011;9526;52.612;13.300;2022-11-02T11:59:18;9.93;;;2.30;;
18796;SDS011;9526;52.612;13.300;2022-11-02T12:01:53;8.52;;;2.00;;
18796;SDS011;9526;52.612;13.300;2022-11-02T12:04:30;8.15;;;2.28;;
18796;SDS011;9526;52.612;13.300;2022-11-02T12:07:02;11.57;;;2.20;;
18796;SDS011;9526;52.612;13.300;2022-11-02T12:09:48;8.57;;;2.03;;
18796;SDS011;9526;52.612;13.300;2022-11-02T12:12:27;10.30;;;2.00;;
18796;SDS011;9526;52.612;13.300;2022-11-02T12:15:11;8.18;;;2.17;;
18796;SDS011;9526;52.612;13.300;2022-11-02T12:17:53;9.27;;;2.20;;
18796;SDS011;9526;52.612;13.300;2022-11-02T12:20:40;9.38;;;2.58;;
18796;SDS011;9526;52.612;13.300;2022-11-02T12:23:19;10.43;;;2.13;;
18796;SDS011;9526;52.612;13.300;2022-11-02T12:26:00;10.23;;;2.90;;
18796;SDS011;9526;52.612;13.300;2022-11-02T12:28:40;7.43;;;2.13;;
18796;SDS011;9526;52.612;13.300;2022-11-02T12:31:17;8.80;;;2.17;;
18796;SDS011;9526;52.612;13.300;2022-11-02T12:33:55;9.32;;;2.13;;
18796;SDS011;9526;52.612;13.300;2022-11-02T12:36:42;6.88;;;2.08;;
18796;SDS011;9526;52.612;13.300;2022-11-02T12:39:40;8.93;;;1.90;;
18796;SDS011;9526;52.612;13.300;2022-11-02T12:42:20;8.93;;;2.13;;
18796;SDS011;9526;52.612;13.300;2022-11-02T12:47:48;9.02;;;2.03;;
18796;SDS011;9526;52.612;13.300;2022-11-02T12:50:20;6.88;;;1.73;;
18796;SDS011;9526;52.612;13.300;2022-11-02T12:53:01;7.40;;;2.22;;
18796;SDS011;9526;52.612;13.300;2022-11-02T12:55:44;6.57;;;1.80;;
18796;SDS011;9526;52.612;13.300;2022-11-02T12:58:12;7.75;;;1.70;;
18796;SDS011;9526;52.612;13.300;2022-11-02T13:00:42;6.53;;;1.65;;
18796;SDS011;9526;52.612;13.300;2022-11-02T13:03:14;4.00;;;1.63;;
18796;SDS011;9526;52.612;13.300;2022-11-02T13:05:52;7.63;;;1.88;;
18796;SDS011;9526;52.612;13.300;2022-11-02T13:08:27;6.40;;;1.80;;
18796;SDS011;9526;52.612;13.300;2022-11-02T13:10:58;4.40;;;1.65;;
18796;SDS011;9526;52.612;13.300;2022-11-02T13:13:31;4.15;;;1.85;;
18796;SDS011;9526;52.612;13.300;2022-11-02T13:16:00;6.00;;;1.65;;
18796;SDS011;9526;52.612;13.300;2022-11-02T13:18:29;6.47;;;1.80;;
18796;SDS011;9526;52.612;13.300;2022-11-02T13:21:01;6.43;;;1.95;;
18796;SDS011;9526;52.612;13.300;2022-11-02T13:23:28;5.97;;;2.00;;
18796;SDS011;9526;52.612;13.300;2022-11-02T13:25:59;11.38;;;1.90;;
18796;SDS011;9526;52.612;13.300;2022-11-02T13:28:29;11.88;;;2.15;;
18796;SDS011;9526;52.612;13.300;2022-11-02T13:30:58;4.97;;;1.67;;
18796;SDS011;9526;52.612;13.300;2022-11-02T13:33:36;4.82;;;1.90;;
18796;SDS011;9526;52.612;13.300;2022-11-02T13:36:06;6.55;;;1.92;;
18796;SDS011;9526;52.612;13.300;2022-11-02T13:38:31;6.80;;;1.58;;
18796;SDS011;9526;52.612;13.300;2022-11-02T13:47:18;4.68;;;1.65;;
18796;SDS011;9526;52.612;13.300;2022-11-02T13:50:20;5.78;;;1.92;;
18796;SDS011;9526;52.612;13.300;2022-11-02T13:52:48;5.93;;;2.00;;
18796;SDS011;9526;52.612;13.300;2022-11-02T13:55:20;8.07;;;1.88;;
18796;SDS011;9526;52.612;13.300;2022-11-02T13:57:48;4.63;;;1.73;;
18796;SDS011;9526;52.612;13.300;2022-11-02T14:00:28;8.55;;;1.83;;
18796;SDS011;9526;52.612;13.300;2022-11-02T14:02:58;10.57;;;2.20;;
18796;SDS011;9526;52.612;13.300;2022-11-02T14:05:31;7.13;;;2.00;;
18796;SDS011;9526;52.612;13.300;2022-11-02T14:07:58;7.28;;;2.33;;
18796;SDS011;9526;52.612;13.300;2022-11-02T14:10:24;6.97;;;2.20;;
18796;SDS011;9526;52.612;13.300;2022-11-02T14:12:48;4.97;;;1.88;;
18796;SDS011;9526;52.612;13.300;2022-11-02T14:20:55;7.30;;;2.53;;
18796;SDS011;9526;52.612;13.300;2022-11-02T14:23:38;6.60;;;2.30;;
18796;SDS011;9526;52.612;13.300;2022-11-02T14:26:02;8.98;;;2.33;;
18796;SDS011;9526;52.612;13.300;2022-11-02T14:28:26;8.13;;;2.22;;
18796;SDS011;9526;52.612;13.300;2022-11-02T14:30:55;11.10;;;2.55;;
18796;SDS011;9526;52.612;13.300;2022-11-02T14:36:53;4.70;;;2.10;;
18796;SDS011;9526;52.612;13.300;2022-11-02T14:39:34;9.18;;;2.55;;
18796;SDS011;9526;52.612;13.300;2022-11-02T14:42:16;17.42;;;2.25;;
18796;SDS011;9526;52.612;13.300;2022-11-02T14:45:04;9.80;;;2.40;;
18796;SDS011;9526;52.612;13.300;2022-11-02T14:47:44;6.75;;;2.08;;
18796;SDS011;9526;52.612;13.300;2022-11-02T14:50:12;8.95;;;1.90;;
18796;SDS011;9526;52.612;13.300;2022-11-02T14:52:40;7.57;;;2.22;;
18796;SDS011;9526;52.612;13.300;2022-11-02T14:55:19;3.95;;;1.55;;
18796;SDS011;9526;52.612;13.300;2022-11-02T14:57:49;4.57;;;1.67;;
18796;SDS011;9526;52.612;13.300;2022-11-02T15:00:17;8.82;;;1.83;;
18796;SDS011;9526;52.612;13.300;2022-11-02T15:02:43;4.30;;;1.65;;
18796;SDS011;9526;52.612;13.300;2022-11-02T15:05:10;7.93;;;1.55;;
18796;SDS011;9526;52.612;13.300;2022-11-02T15:07:48;6.22;;;1.80;;
18796;SDS011;9526;52.612;13.300;2022-11-02T15:13:32;9.35;;;1.85;;
18796;SDS011;9526;52.612;13.300;2022-11-02T15:16:14;7.55;;;1.98;;